sensor_id;sensor_type;location;lat;lon;timestamp;pressure;altitude;pressure_sealevel;temperature;humidity
72118;BME280;59992;47.490;8.736;2023-10-08T00:01:07;97614.62;;;9.33;92.61
72118;BME280;59992;47.490;8.736;2023-10-08T00:04:00;97614.06;;;9.30;94.39
72118;BME280;59992;47.490;8.736;2023-10-08T00:06:54;97620.73;;;9.29;95.06
72118;BME280;59992;47.490;8.736;2023-10-08T00:09:44;97620.33;;;9.28;95.53
72118;BME280;59992;47.490;8.736;2023-10-08T00:12:35;97623.95;;;9.28;95.32
72118;BME280;59992;47.490;8.736;2023-10-08T00:15:25;97629.81;;;9.27;95.45
72118;BME280;59992;47.490;8.736;2023-10-08T00:18:15;97633.90;;;9.25;94.65
72118;BME280;59992;47.490;8.736;2023-10-08T00:21:07;97635.88;;;9.25;95.50
72118;BME280;59992;47.490;8.736;2023-10-08T00:24:08;97635.30;;;9.26;96.28
72118;BME280;59992;47.490;8.736;2023-10-08T00:26:58;97636.77;;;9.25;96.40
72118;BME280;59992;47.490;8.736;2023-10-08T00:29:49;97640.92;;;9.23;95.32
72118;BME280;59992;47.490;8.736;2023-10-08T00:32:39;97643.67;;;9.21;94.17
72118;BME280;59992;47.490;8.736;2023-10-08T00:35:29;97638.85;;;9.17;93.50
72118;BME280;59992;47.490;8.736;2023-10-08T00:38:19;97639.11;;;9.14;94.21
72118;BME280;59992;47.490;8.736;2023-10-08T00:41:10;97638.77;;;9.10;94.29
72118;BME280;59992;47.490;8.736;2023-10-08T00:44:06;97640.39;;;9.05;93.57
72118;BME280;59992;47.490;8.736;2023-10-08T00:46:58;97635.77;;;9.00;94.95
72118;BME280;59992;47.490;8.736;2023-10-08T00:49:49;97629.41;;;9.00;95.50
72118;BME280;59992;47.490;8.736;2023-10-08T00:53:00;97629.80;;;8.97;94.60
72118;BME280;59992;47.490;8.736;2023-10-08T00:55:58;97628.05;;;8.94;93.22
72118;BME280;59992;47.490;8.736;2023-10-08T00:58:56;97626.42;;;8.91;92.77
72118;BME280;59992;47.490;8.736;2023-10-08T01:01:49;97623.55;;;8.87;94.14
72118;BME280;59992;47.490;8.736;2023-10-08T01:04:41;97626.16;;;8.86;92.98
72118;BME280;59992;47.490;8.736;2023-10-08T01:07:33;97625.54;;;8.81;92.89
72118;BME280;59992;47.490;8.736;2023-10-08T01:10:24;97624.48;;;8.77;94.55
72118;BME280;59992;47.490;8.736;2023-10-08T01:13:14;97615.77;;;8.77;94.50
72118;BME280;59992;47.490;8.736;2023-10-08T01:16:09;97606.84;;;8.76;92.63
72118;BME280;59992;47.490;8.736;2023-10-08T01:19:00;97601.52;;;8.73;91.60
72118;BME280;59992;47.490;8.736;2023-10-08T01:21:51;97597.76;;;8.70;93.99
72118;BME280;59992;47.490;8.736;2023-10-08T01:24:41;97596.83;;;8.69;93.99
72118;BME280;59992;47.490;8.736;2023-10-08T01:27:33;97596.98;;;8.69;95.04
72118;BME280;59992;47.490;8.736;2023-10-08T01:30:24;97597.60;;;8.69;95.39
72118;BME280;59992;47.490;8.736;2023-10-08T01:33:14;97599.71;;;8.69;93.86
72118;BME280;59992;47.490;8.736;2023-10-08T01:36:09;97599.88;;;8.68;93.91
72118;BME280;59992;47.490;8.736;2023-10-08T01:39:02;97597.89;;;8.65;94.90
72118;BME280;59992;47.490;8.736;2023-10-08T01:41:55;97596.86;;;8.64;95.44
72118;BME280;59992;47.490;8.736;2023-10-08T01:44:46;97600.48;;;8.64;93.90
72118;BME280;59992;47.490;8.736;2023-10-08T01:47:37;97594.69;;;8.60;95.16
72118;BME280;59992;47.490;8.736;2023-10-08T01:50:27;97593.36;;;8.59;95.13
72118;BME280;59992;47.490;8.736;2023-10-08T01:53:18;97592.64;;;8.58;96.05
72118;BME280;59992;47.490;8.736;2023-10-08T01:56:09;97588.09;;;8.57;95.42
72118;BME280;59992;47.490;8.736;2023-10-08T01:58:59;97580.48;;;8.56;95.33
72118;BME280;59992;47.490;8.736;2023-10-08T02:01:50;97579.18;;;8.55;96.62
72118;BME280;59992;47.490;8.736;2023-10-08T02:04:44;97577.25;;;8.54;95.73
72118;BME280;59992;47.490;8.736;2023-10-08T02:07:34;97576.56;;;8.52;95.37
72118;BME280;59992;47.490;8.736;2023-10-08T02:10:24;97575.83;;;8.50;95.71
72118;BME280;59992;47.490;8.736;2023-10-08T02:13:15;97572.18;;;8.46;95.35
72118;BME280;59992;47.490;8.736;2023-10-08T02:16:05;97567.85;;;8.43;94.88
72118;BME280;59992;47.490;8.736;2023-10-08T02:18:56;97567.94;;;8.41;96.70
72118;BME280;59992;47.490;8.736;2023-10-08T02:21:46;97566.93;;;8.41;95.28
72118;BME280;59992;47.490;8.736;2023-10-08T02:24:37;97562.36;;;8.37;94.99
72118;BME280;59992;47.490;8.736;2023-10-08T02:27:28;97563.70;;;8.35;95.62
72118;BME280;59992;47.490;8.736;2023-10-08T02:30:21;97563.59;;;8.34;95.28
72118;BME280;59992;47.490;8.736;2023-10-08T02:33:12;97569.68;;;8.34;94.80
72118;BME280;59992;47.490;8.736;2023-10-08T02:36:05;97568.02;;;8.32;96.11
72118;BME280;59992;47.490;8.736;2023-10-08T02:38:56;97570.52;;;8.31;96.05
72118;BME280;59992;47.490;8.736;2023-10-08T02:41:47;97575.98;;;8.31;97.03
72118;BME280;59992;47.490;8.736;2023-10-08T02:44:37;97585.18;;;8.32;95.76
72118;BME280;59992;47.490;8.736;2023-10-08T02:47:31;97590.14;;;8.29;96.11
72118;BME280;59992;47.490;8.736;2023-10-08T02:50:22;97588.40;;;8.28;96.45
72118;BME280;59992;47.490;8.736;2023-10-08T02:53:12;97591.88;;;8.26;97.32
72118;BME280;59992;47.490;8.736;2023-10-08T02:56:07;97587.98;;;8.25;96.04
72118;BME280;59992;47.490;8.736;2023-10-08T02:59:02;97590.72;;;8.24;96.40
72118;BME280;59992;47.490;8.736;2023-10-08T03:01:57;97593.78;;;8.21;95.06
72118;BME280;59992;47.490;8.736;2023-10-08T03:04:48;97598.34;;;8.16;96.46
72118;BME280;59992;47.490;8.736;2023-10-08T03:07:40;97598.52;;;8.15;97.37
72118;BME280;59992;47.490;8.736;2023-10-08T03:10:30;97590.61;;;8.15;95.82
72118;BME280;59992;47.490;8.736;2023-10-08T03:13:23;97587.14;;;8.13;94.97
72118;BME280;59992;47.490;8.736;2023-10-08T03:16:15;97586.06;;;8.11;96.72
72118;BME280;59992;47.490;8.736;2023-10-08T03:19:10;97582.48;;;8.10;96.27
72118;BME280;59992;47.490;8.736;2023-10-08T03:22:00;97580.83;;;8.08;94.79
72118;BME280;59992;47.490;8.736;2023-10-08T03:24:53;97582.57;;;8.06;95.35
72118;BME280;59992;47.490;8.736;2023-10-08T03:27:45;97580.05;;;8.03;95.08
72118;BME280;59992;47.490;8.736;2023-10-08T03:30:37;97580.26;;;7.97;95.33
72118;BME280;59992;47.490;8.736;2023-10-08T03:33:38;97582.98;;;7.95;96.42
72118;BME280;59992;47.490;8.736;2023-10-08T03:36:28;97582.23;;;7.94;96.37
72118;BME280;59992;47.490;8.736;2023-10-08T03:39:23;97581.34;;;7.94;95.34
72118;BME280;59992;47.490;8.736;2023-10-08T03:42:27;97585.31;;;7.93;96.43
72118;BME280;59992;47.490;8.736;2023-10-08T03:45:23;97584.49;;;7.94;96.64
72118;BME280;59992;47.490;8.736;2023-10-08T03:48:31;97581.77;;;7.94;96.67
72118;BME280;59992;47.490;8.736;2023-10-08T03:51:26;97580.21;;;7.94;96.90
72118;BME280;59992;47.490;8.736;2023-10-08T03:54:17;97580.05;;;7.96;97.60
72118;BME280;59992;47.490;8.736;2023-10-08T03:57:10;97578.49;;;7.97;96.49
72118;BME280;59992;47.490;8.736;2023-10-08T04:00:09;97572.22;;;7.96;96.69
72118;BME280;59992;47.490;8.736;2023-10-08T04:03:03;97570.91;;;7.98;97.28
72118;BME280;59992;47.490;8.736;2023-10-08T04:05:57;97559.83;;;7.92;96.56
72118;BME280;59992;47.490;8.736;2023-10-08T04:09:03;97567.41;;;7.96;96.30
72118;BME280;59992;47.490;8.736;2023-10-08T04:12:12;97567.89;;;7.93;96.34
72118;BME280;59992;47.490;8.736;2023-10-08T04:15:09;97562.62;;;7.92;96.03
72118;BME280;59992;47.490;8.736;2023-10-08T04:18:01;97562.09;;;7.88;95.55
72118;BME280;59992;47.490;8.736;2023-10-08T04:20:52;97565.96;;;7.85;96.66
72118;BME280;59992;47.490;8.736;2023-10-08T04:23:53;97562.52;;;7.84;97.63
72118;BME280;59992;47.490;8.736;2023-10-08T04:26:46;97563.36;;;7.86;97.36
72118;BME280;59992;47.490;8.736;2023-10-08T04:29:38;97561.35;;;7.85;96.12
72118;BME280;59992;47.490;8.736;2023-10-08T04:32:31;97562.98;;;7.82;96.30
72118;BME280;59992;47.490;8.736;2023-10-08T04:35:22;97562.20;;;7.81;96.82
72118;BME280;59992;47.490;8.736;2023-10-08T04:38:16;97564.03;;;7.80;96.75
72118;BME280;59992;47.490;8.736;2023-10-08T04:41:07;97563.85;;;7.81;97.44
72118;BME280;59992;47.490;8.736;2023-10-08T04:43:58;97565.14;;;7.81;96.27
72118;BME280;59992;47.490;8.736;2023-10-08T04:46:56;97564.69;;;7.79;95.99
72118;BME280;59992;47.490;8.736;2023-10-08T04:49:53;97565.20;;;7.77;96.03
72118;BME280;59992;47.490;8.736;2023-10-08T04:52:45;97563.73;;;7.76;97.85
72118;BME280;59992;47.490;8.736;2023-10-08T04:55:47;97569.86;;;7.77;97.52
72118;BME280;59992;47.490;8.736;2023-10-08T04:58:37;97569.44;;;7.75;97.42
72118;BME280;59992;47.490;8.736;2023-10-08T05:01:29;97563.81;;;7.74;97.93
72118;BME280;59992;47.490;8.736;2023-10-08T05:04:27;97562.54;;;7.75;98.35
72118;BME280;59992;47.490;8.736;2023-10-08T05:07:22;97558.36;;;7.76;97.35
72118;BME280;59992;47.490;8.736;2023-10-08T05:10:29;97562.52;;;7.74;96.81
72118;BME280;59992;47.490;8.736;2023-10-08T05:13:34;97561.41;;;7.71;97.97
72118;BME280;59992;47.490;8.736;2023-10-08T05:16:34;97561.17;;;7.71;97.91
72118;BME280;59992;47.490;8.736;2023-10-08T05:19:32;97564.89;;;7.68;96.79
72118;BME280;59992;47.490;8.736;2023-10-08T05:22:45;97566.27;;;7.65;97.53
72118;BME280;59992;47.490;8.736;2023-10-08T05:25:44;97567.52;;;7.62;97.87
72118;BME280;59992;47.490;8.736;2023-10-08T05:28:47;97569.51;;;7.63;96.75
72118;BME280;59992;47.490;8.736;2023-10-08T05:31:50;97569.91;;;7.60;97.37
72118;BME280;59992;47.490;8.736;2023-10-08T05:35:04;97570.63;;;7.60;98.20
72118;BME280;59992;47.490;8.736;2023-10-08T05:38:08;97571.45;;;7.64;99.32
72118;BME280;59992;47.490;8.736;2023-10-08T05:41:05;97569.80;;;7.68;97.93
72118;BME280;59992;47.490;8.736;2023-10-08T05:44:16;97570.89;;;7.71;97.57
72118;BME280;59992;47.490;8.736;2023-10-08T05:47:27;97572.86;;;7.75;97.13
72118;BME280;59992;47.490;8.736;2023-10-08T05:50:30;97574.84;;;7.80;97.24
72118;BME280;59992;47.490;8.736;2023-10-08T05:53:31;97572.64;;;7.86;96.50
72118;BME280;59992;47.490;8.736;2023-10-08T05:56:34;97573.67;;;7.91;97.73
72118;BME280;59992;47.490;8.736;2023-10-08T05:59:42;97573.99;;;8.01;97.07
72118;BME280;59992;47.490;8.736;2023-10-08T06:03:03;97579.08;;;8.11;97.69
72118;BME280;59992;47.490;8.736;2023-10-08T06:06:20;97583.92;;;8.24;96.50
72118;BME280;59992;47.490;8.736;2023-10-08T06:09:25;97589.25;;;8.32;97.38
72118;BME280;59992;47.490;8.736;2023-10-08T06:12:24;97593.51;;;8.45;96.57
72118;BME280;59992;47.490;8.736;2023-10-08T06:15:19;97590.15;;;8.64;95.11
72118;BME280;59992;47.490;8.736;2023-10-08T06:18:28;97589.17;;;8.87;94.29
72118;BME280;59992;47.490;8.736;2023-10-08T06:21:18;97590.59;;;9.16;93.93
72118;BME280;59992;47.490;8.736;2023-10-08T06:24:10;97590.94;;;9.53;92.42
72118;BME280;59992;47.490;8.736;2023-10-08T06:27:05;97592.90;;;9.89;91.45
72118;BME280;59992;47.490;8.736;2023-10-08T06:29:56;97589.67;;;10.20;88.29
72118;BME280;59992;47.490;8.736;2023-10-08T06:32:46;97590.34;;;10.55;86.63
72118;BME280;59992;47.490;8.736;2023-10-08T06:35:36;97591.13;;;10.93;87.28
72118;BME280;59992;47.490;8.736;2023-10-08T06:38:27;97600.64;;;11.43;85.02
72118;BME280;59992;47.490;8.736;2023-10-08T06:41:19;97602.30;;;11.82;81.07
72118;BME280;59992;47.490;8.736;2023-10-08T06:44:18;97607.27;;;12.16;80.26
72118;BME280;59992;47.490;8.736;2023-10-08T06:47:08;97612.73;;;12.52;79.61
72118;BME280;59992;47.490;8.736;2023-10-08T06:49:58;97612.27;;;12.91;78.54
72118;BME280;59992;47.490;8.736;2023-10-08T06:52:49;97613.33;;;13.24;76.30
72118;BME280;59992;47.490;8.736;2023-10-08T06:55:39;97613.73;;;13.58;75.57
72118;BME280;59992;47.490;8.736;2023-10-08T06:58:29;97612.77;;;13.93;73.95
72118;BME280;59992;47.490;8.736;2023-10-08T07:01:21;97616.14;;;14.37;74.59
72118;BME280;59992;47.490;8.736;2023-10-08T07:04:14;97618.03;;;14.72;71.75
72118;BME280;59992;47.490;8.736;2023-10-08T07:07:04;97623.65;;;15.10;69.36
72118;BME280;59992;47.490;8.736;2023-10-08T07:09:58;97625.86;;;15.36;68.44
72118;BME280;59992;47.490;8.736;2023-10-08T07:12:49;97624.02;;;15.54;67.43
72118;BME280;59992;47.490;8.736;2023-10-08T07:15:42;97623.96;;;15.79;67.55
72118;BME280;59992;47.490;8.736;2023-10-08T07:18:33;97623.40;;;16.01;64.89
72118;BME280;59992;47.490;8.736;2023-10-08T07:21:24;97620.48;;;16.25;67.01
72118;BME280;59992;47.490;8.736;2023-10-08T07:24:17;97613.56;;;16.42;63.67
72118;BME280;59992;47.490;8.736;2023-10-08T07:27:10;97621.05;;;16.59;63.90
72118;BME280;59992;47.490;8.736;2023-10-08T07:30:01;97621.83;;;16.76;62.96
72118;BME280;59992;47.490;8.736;2023-10-08T07:32:59;97624.02;;;17.00;62.40
72118;BME280;59992;47.490;8.736;2023-10-08T07:35:52;97627.29;;;17.09;62.73
72118;BME280;59992;47.490;8.736;2023-10-08T07:38:46;97631.61;;;17.21;62.24
72118;BME280;59992;47.490;8.736;2023-10-08T07:41:36;97635.34;;;17.32;62.22
72118;BME280;59992;47.490;8.736;2023-10-08T07:44:28;97637.88;;;17.34;62.62
72118;BME280;59992;47.490;8.736;2023-10-08T07:47:18;97636.00;;;17.44;63.07
72118;BME280;59992;47.490;8.736;2023-10-08T07:50:10;97639.23;;;17.66;62.40
72118;BME280;59992;47.490;8.736;2023-10-08T07:53:01;97633.71;;;17.67;62.24
72118;BME280;59992;47.490;8.736;2023-10-08T07:55:53;97638.26;;;17.78;62.07
72118;BME280;59992;47.490;8.736;2023-10-08T07:58:44;97642.19;;;17.91;62.03
72118;BME280;59992;47.490;8.736;2023-10-08T08:01:34;97644.51;;;18.06;61.22
72118;BME280;59992;47.490;8.736;2023-10-08T08:04:24;97649.12;;;18.19;61.10
72118;BME280;59992;47.490;8.736;2023-10-08T08:07:22;97648.59;;;18.32;61.10
72118;BME280;59992;47.490;8.736;2023-10-08T08:10:13;97651.13;;;18.43;61.17
72118;BME280;59992;47.490;8.736;2023-10-08T08:13:04;97652.36;;;18.63;61.93
72118;BME280;59992;47.490;8.736;2023-10-08T08:15:55;97649.42;;;18.75;61.51
72118;BME280;59992;47.490;8.736;2023-10-08T08:18:48;97646.57;;;18.79;60.97
72118;BME280;59992;47.490;8.736;2023-10-08T08:21:38;97647.56;;;18.86;60.21
72118;BME280;59992;47.490;8.736;2023-10-08T08:24:33;97648.66;;;19.02;60.48
72118;BME280;59992;47.490;8.736;2023-10-08T08:27:26;97649.49;;;19.10;61.00
72118;BME280;59992;47.490;8.736;2023-10-08T08:30:21;97650.88;;;19.05;60.84
72118;BME280;59992;47.490;8.736;2023-10-08T08:33:16;97655.00;;;19.12;61.50
72118;BME280;59992;47.490;8.736;2023-10-08T08:36:11;97651.09;;;19.15;61.06
72118;BME280;59992;47.490;8.736;2023-10-08T08:39:02;97652.60;;;19.19;61.40
72118;BME280;59992;47.490;8.736;2023-10-08T08:41:54;97650.50;;;19.09;61.39
72118;BME280;59992;47.490;8.736;2023-10-08T08:44:48;97647.83;;;19.01;62.83
72118;BME280;59992;47.490;8.736;2023-10-08T08:47:40;97648.97;;;19.04;61.95
72118;BME280;59992;47.490;8.736;2023-10-08T08:50:30;97648.05;;;19.02;62.35
72118;BME280;59992;47.490;8.736;2023-10-08T08:53:21;97646.96;;;19.06;63.30
72118;BME280;59992;47.490;8.736;2023-10-08T08:56:12;97649.48;;;19.13;62.56
72118;BME280;59992;47.490;8.736;2023-10-08T08:59:05;97651.05;;;19.19;63.67
72118;BME280;59992;47.490;8.736;2023-10-08T09:02:00;97652.30;;;19.19;63.45
72118;BME280;59992;47.490;8.736;2023-10-08T09:04:52;97646.54;;;19.18;63.84
72118;BME280;59992;47.490;8.736;2023-10-08T09:07:55;97651.76;;;19.19;64.70
72118;BME280;59992;47.490;8.736;2023-10-08T09:10:45;97646.92;;;19.20;65.23
72118;BME280;59992;47.490;8.736;2023-10-08T09:13:40;97640.47;;;19.19;64.48
72118;BME280;59992;47.490;8.736;2023-10-08T09:16:35;97652.19;;;19.31;64.15
72118;BME280;59992;47.490;8.736;2023-10-08T09:19:26;97654.34;;;19.39;64.51
72118;BME280;59992;47.490;8.736;2023-10-08T09:22:17;97651.90;;;19.49;64.65
72118;BME280;59992;47.490;8.736;2023-10-08T09:25:09;97645.95;;;19.58;64.74
72118;BME280;59992;47.490;8.736;2023-10-08T09:28:03;97650.22;;;19.78;65.11
72118;BME280;59992;47.490;8.736;2023-10-08T09:30:57;97652.13;;;19.91;65.42
72118;BME280;59992;47.490;8.736;2023-10-08T09:33:56;97651.60;;;20.02;63.78
72118;BME280;59992;47.490;8.736;2023-10-08T09:36:46;97645.52;;;20.12;63.02
72118;BME280;59992;47.490;8.736;2023-10-08T09:39:38;97641.58;;;20.19;64.28
72118;BME280;59992;47.490;8.736;2023-10-08T09:42:30;97639.27;;;20.28;64.39
72118;BME280;59992;47.490;8.736;2023-10-08T09:45:21;97640.02;;;20.31;63.40
72118;BME280;59992;47.490;8.736;2023-10-08T09:48:14;97638.64;;;20.30;61.89
72118;BME280;59992;47.490;8.736;2023-10-08T09:51:06;97640.98;;;20.37;64.00
72118;BME280;59992;47.490;8.736;2023-10-08T09:54:05;97637.14;;;20.45;63.91
72118;BME280;59992;47.490;8.736;2023-10-08T09:57:00;97640.98;;;20.54;63.31
72118;BME280;59992;47.490;8.736;2023-10-08T10:00:03;97642.48;;;20.65;61.48
72118;BME280;59992;47.490;8.736;2023-10-08T10:02:55;97639.39;;;20.75;59.76
72118;BME280;59992;47.490;8.736;2023-10-08T10:05:46;97635.34;;;20.87;63.42
72118;BME280;59992;47.490;8.736;2023-10-08T10:08:38;97638.42;;;20.95;63.72
72118;BME280;59992;47.490;8.736;2023-10-08T10:11:29;97637.06;;;21.00;63.46
72118;BME280;59992;47.490;8.736;2023-10-08T10:14:23;97642.70;;;21.07;63.38
72118;BME280;59992;47.490;8.736;2023-10-08T10:17:22;97642.63;;;21.07;63.52
72118;BME280;59992;47.490;8.736;2023-10-08T10:20:13;97646.34;;;21.13;63.30
72118;BME280;59992;47.490;8.736;2023-10-08T10:23:35;97641.69;;;21.22;63.41
72118;BME280;59992;47.490;8.736;2023-10-08T10:26:29;97641.20;;;21.31;61.33
72118;BME280;59992;47.490;8.736;2023-10-08T10:29:21;97639.55;;;21.33;57.85
72118;BME280;59992;47.490;8.736;2023-10-08T10:32:15;97637.57;;;21.43;60.03
72118;BME280;59992;47.490;8.736;2023-10-08T10:35:06;97634.83;;;21.52;60.49
72118;BME280;59992;47.490;8.736;2023-10-08T10:38:01;97631.55;;;21.62;59.10
72118;BME280;59992;47.490;8.736;2023-10-08T10:40:55;97632.29;;;21.69;58.55
72118;BME280;59992;47.490;8.736;2023-10-08T10:43:47;97640.96;;;21.79;57.35
72118;BME280;59992;47.490;8.736;2023-10-08T10:46:43;97636.41;;;21.91;59.61
72118;BME280;59992;47.490;8.736;2023-10-08T10:49:40;97631.64;;;22.00;60.09
72118;BME280;59992;47.490;8.736;2023-10-08T10:52:41;97631.78;;;22.06;58.88
72118;BME280;59992;47.490;8.736;2023-10-08T10:55:40;97631.51;;;22.13;59.78
72118;BME280;59992;47.490;8.736;2023-10-08T10:58:37;97625.67;;;22.17;56.23
72118;BME280;59992;47.490;8.736;2023-10-08T11:01:29;97626.65;;;22.23;55.24
72118;BME280;59992;47.490;8.736;2023-10-08T11:04:33;97626.26;;;22.28;53.75
72118;BME280;59992;47.490;8.736;2023-10-08T11:07:34;97626.33;;;22.34;55.36
72118;BME280;59992;47.490;8.736;2023-10-08T11:10:31;97632.12;;;22.43;55.27
72118;BME280;59992;47.490;8.736;2023-10-08T11:13:23;97629.95;;;22.53;53.89
72118;BME280;59992;47.490;8.736;2023-10-08T11:16:18;97628.27;;;22.62;50.46
72118;BME280;59992;47.490;8.736;2023-10-08T11:19:11;97626.95;;;22.71;51.64
72118;BME280;59992;47.490;8.736;2023-10-08T11:22:04;97623.02;;;22.80;52.61
72118;BME280;59992;47.490;8.736;2023-10-08T11:24:57;97620.98;;;22.88;51.04
72118;BME280;59992;47.490;8.736;2023-10-08T11:27:47;97616.68;;;22.92;48.33
72118;BME280;59992;47.490;8.736;2023-10-08T11:30:38;97610.92;;;22.98;47.23
72118;BME280;59992;47.490;8.736;2023-10-08T11:33:31;97610.54;;;23.09;50.36
72118;BME280;59992;47.490;8.736;2023-10-08T11:36:26;97606.17;;;23.18;49.44
72118;BME280;59992;47.490;8.736;2023-10-08T11:39:17;97604.05;;;23.29;50.47
72118;BME280;59992;47.490;8.736;2023-10-08T11:42:19;97606.54;;;23.40;50.71
72118;BME280;59992;47.490;8.736;2023-10-08T11:45:31;97600.23;;;23.45;48.27
72118;BME280;59992;47.490;8.736;2023-10-08T11:48:27;97593.48;;;23.50;48.51
72118;BME280;59992;47.490;8.736;2023-10-08T11:51:17;97597.19;;;23.54;51.82
72118;BME280;59992;47.490;8.736;2023-10-08T11:54:07;97596.00;;;23.59;50.88
72118;BME280;59992;47.490;8.736;2023-10-08T11:57:01;97593.17;;;23.64;50.37
72118;BME280;59992;47.490;8.736;2023-10-08T11:59:52;97585.99;;;23.74;50.96
72118;BME280;59992;47.490;8.736;2023-10-08T12:02:43;97581.59;;;23.81;49.54
72118;BME280;59992;47.490;8.736;2023-10-08T12:05:33;97580.14;;;23.82;50.31
72118;BME280;59992;47.490;8.736;2023-10-08T12:08:24;97578.90;;;23.86;52.02
72118;BME280;59992;47.490;8.736;2023-10-08T12:11:16;97573.17;;;23.86;47.27
72118;BME280;59992;47.490;8.736;2023-10-08T12:14:07;97571.66;;;23.91;51.36
72118;BME280;59992;47.490;8.736;2023-10-08T12:16:58;97569.70;;;23.96;51.11
72118;BME280;59992;47.490;8.736;2023-10-08T12:19:49;97570.41;;;24.01;49.60
72118;BME280;59992;47.490;8.736;2023-10-08T12:22:41;97565.01;;;24.02;45.88
72118;BME280;59992;47.490;8.736;2023-10-08T12:25:32;97562.40;;;24.00;47.49
72118;BME280;59992;47.490;8.736;2023-10-08T12:28:22;97561.16;;;24.04;49.94
72118;BME280;59992;47.490;8.736;2023-10-08T12:31:14;97557.10;;;24.05;49.92
72118;BME280;59992;47.490;8.736;2023-10-08T12:34:04;97555.54;;;24.09;50.40
72118;BME280;59992;47.490;8.736;2023-10-08T12:36:55;97551.04;;;24.10;48.07
72118;BME280;59992;47.490;8.736;2023-10-08T12:39:45;97549.98;;;24.15;47.88
72118;BME280;59992;47.490;8.736;2023-10-08T12:42:48;97545.51;;;24.17;48.15
72118;BME280;59992;47.490;8.736;2023-10-08T12:45:39;97546.52;;;24.23;47.26
72118;BME280;59992;47.490;8.736;2023-10-08T12:48:29;97547.87;;;24.31;50.53
72118;BME280;59992;47.490;8.736;2023-10-08T12:51:20;97545.98;;;24.35;47.54
72118;BME280;59992;47.490;8.736;2023-10-08T12:54:12;97546.83;;;24.44;49.23
72118;BME280;59992;47.490;8.736;2023-10-08T12:57:10;97545.77;;;24.55;50.35
72118;BME280;59992;47.490;8.736;2023-10-08T13:00:07;97544.64;;;24.62;48.29
72118;BME280;59992;47.490;8.736;2023-10-08T13:02:57;97544.68;;;24.69;45.68
72118;BME280;59992;47.490;8.736;2023-10-08T13:05:50;97542.55;;;24.75;45.96
72118;BME280;59992;47.490;8.736;2023-10-08T13:08:42;97541.83;;;24.81;50.27
72118;BME280;59992;47.490;8.736;2023-10-08T13:11:32;97538.09;;;24.87;47.70
72118;BME280;59992;47.490;8.736;2023-10-08T13:14:23;97537.14;;;24.96;50.66
72118;BME280;59992;47.490;8.736;2023-10-08T13:17:13;97535.70;;;25.06;51.62
72118;BME280;59992;47.490;8.736;2023-10-08T13:20:04;97533.76;;;25.17;51.13
72118;BME280;59992;47.490;8.736;2023-10-08T13:23:00;97528.98;;;25.26;51.13
72118;BME280;59992;47.490;8.736;2023-10-08T13:25:51;97527.71;;;25.34;51.03
72118;BME280;59992;47.490;8.736;2023-10-08T13:28:43;97525.95;;;25.43;52.28
72118;BME280;59992;47.490;8.736;2023-10-08T13:31:33;97524.79;;;25.47;49.00
72118;BME280;59992;47.490;8.736;2023-10-08T13:34:25;97519.55;;;25.51;53.25
72118;BME280;59992;47.490;8.736;2023-10-08T13:37:16;97516.21;;;25.49;51.66
72118;BME280;59992;47.490;8.736;2023-10-08T13:40:10;97515.35;;;25.44;51.27
72118;BME280;59992;47.490;8.736;2023-10-08T13:43:04;97511.10;;;25.41;53.17
72118;BME280;59992;47.490;8.736;2023-10-08T13:45:55;97514.80;;;25.36;50.91
72118;BME280;59992;47.490;8.736;2023-10-08T13:48:46;97511.02;;;25.30;52.59
72118;BME280;59992;47.490;8.736;2023-10-08T13:51:37;97507.48;;;25.27;53.86
72118;BME280;59992;47.490;8.736;2023-10-08T13:54:27;97506.87;;;25.13;52.13
72118;BME280;59992;47.490;8.736;2023-10-08T13:57:19;97510.00;;;24.99;52.74
72118;BME280;59992;47.490;8.736;2023-10-08T14:00:11;97507.09;;;24.82;52.44
72118;BME280;59992;47.490;8.736;2023-10-08T14:03:04;97507.39;;;24.67;54.07
72118;BME280;59992;47.490;8.736;2023-10-08T14:05:58;97504.89;;;24.57;54.17
72118;BME280;59992;47.490;8.736;2023-10-08T14:08:52;97505.80;;;24.46;54.00
72118;BME280;59992;47.490;8.736;2023-10-08T14:11:43;97504.86;;;24.41;54.70
72118;BME280;59992;47.490;8.736;2023-10-08T14:14:33;97504.23;;;24.38;55.61
72118;BME280;59992;47.490;8.736;2023-10-08T14:17:23;97502.71;;;24.35;55.71
72118;BME280;59992;47.490;8.736;2023-10-08T14:20:27;97502.95;;;24.31;56.10
72118;BME280;59992;47.490;8.736;2023-10-08T14:23:20;97502.55;;;24.23;55.94
72118;BME280;59992;47.490;8.736;2023-10-08T14:26:11;97500.73;;;24.15;56.17
72118;BME280;59992;47.490;8.736;2023-10-08T14:29:04;97499.61;;;24.07;57.03
72118;BME280;59992;47.490;8.736;2023-10-08T14:31:59;97501.13;;;23.99;56.41
72118;BME280;59992;47.490;8.736;2023-10-08T14:34:49;97494.31;;;23.86;55.46
72118;BME280;59992;47.490;8.736;2023-10-08T14:37:57;97489.28;;;23.74;54.84
72118;BME280;59992;47.490;8.736;2023-10-08T14:41:05;97491.30;;;23.54;54.29
72118;BME280;59992;47.490;8.736;2023-10-08T14:44:13;97490.90;;;23.48;55.04
72118;BME280;59992;47.490;8.736;2023-10-08T14:47:03;97488.02;;;23.46;55.19
72118;BME280;59992;47.490;8.736;2023-10-08T14:49:54;97489.71;;;23.43;55.37
72118;BME280;59992;47.490;8.736;2023-10-08T14:52:45;97488.35;;;23.39;55.46
72118;BME280;59992;47.490;8.736;2023-10-08T14:55:36;97485.89;;;23.34;55.27
72118;BME280;59992;47.490;8.736;2023-10-08T14:58:27;97480.05;;;23.28;55.55
72118;BME280;59992;47.490;8.736;2023-10-08T15:01:17;97482.44;;;23.18;55.37
72118;BME280;59992;47.490;8.736;2023-10-08T15:04:08;97479.87;;;23.04;55.16
72118;BME280;59992;47.490;8.736;2023-10-08T15:07:00;97469.70;;;22.96;55.87
72118;BME280;59992;47.490;8.736;2023-10-08T15:09:50;97457.64;;;22.78;56.17
72118;BME280;59992;47.490;8.736;2023-10-08T15:12:41;97460.30;;;22.73;57.00
72118;BME280;59992;47.490;8.736;2023-10-08T15:15:31;97463.10;;;22.72;57.29
72118;BME280;59992;47.490;8.736;2023-10-08T15:18:23;97460.46;;;22.68;57.69
72118;BME280;59992;47.490;8.736;2023-10-08T15:21:20;97462.76;;;22.66;58.42
72118;BME280;59992;47.490;8.736;2023-10-08T15:24:13;97462.35;;;22.59;58.71
72118;BME280;59992;47.490;8.736;2023-10-08T15:27:04;97460.64;;;22.48;59.11